createdAt,value
2018-08-09T00:00:05.665Z,22.70
2018-08-09T00:00:40.304Z,22.70
2018-08-09T00:01:14.212Z,22.70
2018-08-09T00:01:48.075Z,22.70
2018-08-09T00:02:22.329Z,22.70
2018-08-09T00:02:56.515Z,22.70
2018-08-09T00:03:31.274Z,22.60
2018-08-09T00:04:06.305Z,22.60
2018-08-09T00:04:40.762Z,22.60
2018-08-09T00:05:14.857Z,22.60
2018-08-09T00:05:48.789Z,22.60
2018-08-09T00:06:22.644Z,22.60
2018-08-09T00:06:56.856Z,22.60
2018-08-09T00:07:30.739Z,22.60
2018-08-09T00:08:05.032Z,22.60
2018-08-09T00:08:39.305Z,22.60
2018-08-09T00:09:13.453Z,22.60
2018-08-09T00:09:48.047Z,22.60
2018-08-09T00:10:21.987Z,22.60
2018-08-09T00:10:55.885Z,22.60
2018-08-09T00:11:29.800Z,22.50
2018-08-09T00:12:03.721Z,22.50
2018-08-09T00:12:37.946Z,22.50
2018-08-09T00:13:40.053Z,22.50
2018-08-09T00:14:14.792Z,22.50
2018-08-09T00:14:48.724Z,22.50
2018-08-09T00:15:22.993Z,22.50
2018-08-09T00:15:57.202Z,22.50
2018-08-09T00:16:31.428Z,22.50
2018-08-09T00:17:06.013Z,22.50
2018-08-09T00:17:40.108Z,22.50
2018-08-09T00:18:13.972Z,22.50
2018-08-09T00:18:48.213Z,22.50
2018-08-09T00:19:22.514Z,22.40
2018-08-09T00:19:56.459Z,22.40
2018-08-09T00:20:30.364Z,22.40
2018-08-09T00:21:04.457Z,22.40
2018-08-09T00:21:38.377Z,22.40
2018-08-09T00:22:12.251Z,22.40
2018-08-09T00:22:46.517Z,22.40
2018-08-09T00:23:20.455Z,22.30
2018-08-09T00:23:54.589Z,22.30
2018-08-09T00:24:29.200Z,22.30
2018-08-09T00:25:03.107Z,22.30
2018-08-09T00:25:37.314Z,22.30
2018-08-09T00:26:11.509Z,22.30
2018-08-09T00:26:45.665Z,22.30
2018-08-09T00:27:19.553Z,22.30
2018-08-09T00:27:53.540Z,22.30
2018-08-09T00:28:27.399Z,22.30
2018-08-09T00:29:01.641Z,22.30
2018-08-09T00:29:35.631Z,22.20
2018-08-09T00:30:09.864Z,22.20
2018-08-09T00:30:43.757Z,22.20
2018-08-09T00:31:18.052Z,22.20
2018-08-09T00:32:55.590Z,22.20
2018-08-09T00:33:29.617Z,22.20
2018-08-09T00:34:03.569Z,22.20
2018-08-09T00:34:37.509Z,22.20
2018-08-09T00:35:11.406Z,22.20
2018-08-09T00:35:45.452Z,22.20
2018-08-09T00:36:19.391Z,22.10
2018-08-09T00:36:53.625Z,22.10
2018-08-09T00:37:27.568Z,22.10
2018-08-09T00:38:01.503Z,22.10
2018-08-09T00:38:35.456Z,22.10
2018-08-09T00:39:12.044Z,22.10
2018-08-09T00:39:46.295Z,22.10
2018-08-09T00:40:20.651Z,22.10
2018-08-09T00:40:54.497Z,22.10
2018-08-09T00:41:28.374Z,22.10
2018-08-09T00:42:02.745Z,22.10
2018-08-09T00:42:36.791Z,22.10
2018-08-09T00:43:10.840Z,22.10
2018-08-09T00:43:45.266Z,22.00
2018-08-09T00:44:19.157Z,22.00
2018-08-09T00:44:53.434Z,22.10
2018-08-09T00:45:27.342Z,22.10
2018-08-09T00:46:01.594Z,22.10
2018-08-09T00:46:35.738Z,22.10
2018-08-09T00:47:10.150Z,22.10
2018-08-09T00:47:44.512Z,22.10
2018-08-09T00:48:18.772Z,22.00
2018-08-09T00:48:52.978Z,22.00
2018-08-09T00:49:27.375Z,22.10
2018-08-09T00:50:01.263Z,22.00
2018-08-09T00:50:35.522Z,22.00
2018-08-09T00:51:09.767Z,22.00
2018-08-09T00:51:43.939Z,22.00
2018-08-09T00:52:17.808Z,22.00
2018-08-09T00:52:52.071Z,22.00
2018-08-09T00:53:25.977Z,22.00
2018-08-09T00:54:00.243Z,22.00
2018-08-09T00:54:34.521Z,21.90
2018-08-09T00:55:08.488Z,21.90
2018-08-09T00:55:42.417Z,21.90
2018-08-09T00:56:16.517Z,21.90
2018-08-09T00:56:50.964Z,21.90
2018-08-09T00:57:24.931Z,21.90
2018-08-09T00:57:59.219Z,21.90
2018-08-09T00:58:33.141Z,21.90
2018-08-09T00:59:07.384Z,21.90
2018-08-09T00:59:41.667Z,21.90
2018-08-09T01:00:16.304Z,21.90
2018-08-09T01:00:50.174Z,21.90
2018-08-09T01:01:24.836Z,21.90
2018-08-09T01:01:58.803Z,21.90
2018-08-09T01:02:33.143Z,21.90
2018-08-09T01:03:07.342Z,21.90
2018-08-09T01:03:41.589Z,21.90
2018-08-09T01:04:15.791Z,21.80
2018-08-09T01:04:49.655Z,21.80
2018-08-09T01:05:23.737Z,21.80
2018-08-09T01:05:57.864Z,21.80
2018-08-09T01:06:32.477Z,21.80
2018-08-09T01:07:06.653Z,21.80
2018-08-09T01:07:40.549Z,21.80
2018-08-09T01:08:14.436Z,21.80
2018-08-09T01:08:53.785Z,21.80
2018-08-09T01:09:27.987Z,21.70
2018-08-09T01:10:02.253Z,21.70
2018-08-09T01:10:37.035Z,21.70
2018-08-09T01:11:10.949Z,21.70
2018-08-09T01:11:45.279Z,21.70
2018-08-09T01:12:19.481Z,21.70
2018-08-09T01:12:53.531Z,21.70
2018-08-09T01:13:27.573Z,21.70
2018-08-09T01:14:01.517Z,21.70
2018-08-09T01:14:35.449Z,21.70
2018-08-09T01:15:09.725Z,21.70
2018-08-09T01:15:43.612Z,21.70
2018-08-09T01:16:18.099Z,21.70
2018-08-09T01:16:51.999Z,21.70
2018-08-09T01:17:25.883Z,21.70
2018-08-09T01:18:00.092Z,21.70
2018-08-09T01:18:33.959Z,21.70
2018-08-09T01:19:08.205Z,21.70
2018-08-09T01:19:42.518Z,21.70
2018-08-09T01:20:16.847Z,21.70
2018-08-09T01:20:51.265Z,21.60
2018-08-09T01:21:25.205Z,21.70
2018-08-09T01:22:44.250Z,21.60
2018-08-09T01:23:18.195Z,21.60
2018-08-09T01:23:52.087Z,21.60
2018-08-09T01:24:25.977Z,21.60
2018-08-09T01:25:00.204Z,21.60
2018-08-09T01:25:34.267Z,21.60
2018-08-09T01:26:08.829Z,21.60
2018-08-09T01:26:42.689Z,21.60
2018-08-09T01:27:16.927Z,21.60
2018-08-09T01:27:50.885Z,21.60
2018-08-09T01:28:24.821Z,21.60
2018-08-09T01:28:58.727Z,21.60
2018-08-09T01:29:32.597Z,21.60
2018-08-09T01:30:06.877Z,21.60
2018-08-09T01:30:41.128Z,21.60
2018-08-09T01:31:16.533Z,21.60
2018-08-09T01:31:50.435Z,21.60
2018-08-09T01:32:24.673Z,21.60
2018-08-09T01:32:58.959Z,21.60
2018-08-09T01:33:33.130Z,21.60
2018-08-09T01:34:08.919Z,21.60
2018-08-09T01:34:42.844Z,21.60
2018-08-09T01:35:16.723Z,21.60
2018-08-09T01:35:51.057Z,21.60
2018-08-09T01:36:25.599Z,21.50
2018-08-09T01:36:59.485Z,21.50
2018-08-09T01:37:33.507Z,21.50
2018-08-09T01:38:07.413Z,21.50
2018-08-09T01:38:41.455Z,21.50
2018-08-09T01:39:15.791Z,21.50
2018-08-09T01:39:49.671Z,21.50
2018-08-09T01:40:23.871Z,21.50
2018-08-09T01:40:58.445Z,21.40
2018-08-09T01:41:32.313Z,21.40
2018-08-09T01:42:17.590Z,21.50
2018-08-09T01:43:02.829Z,21.40
2018-08-09T01:43:48.229Z,21.40
2018-08-09T01:44:22.469Z,21.40
2018-08-09T01:44:56.678Z,21.40
2018-08-09T01:45:31.003Z,21.40
2018-08-09T01:46:04.945Z,21.40
2018-08-09T01:46:38.864Z,21.40
2018-08-09T01:47:12.748Z,21.40
2018-08-09T01:47:47.121Z,21.30
2018-08-09T01:48:21.333Z,21.30
2018-08-09T01:48:56.315Z,21.30
2018-08-09T01:49:30.209Z,21.30
2018-08-09T01:50:04.407Z,21.30
2018-08-09T01:50:38.255Z,21.30
2018-08-09T01:51:12.203Z,21.30
2018-08-09T01:51:46.061Z,21.30
2018-08-09T01:52:19.941Z,21.30
2018-08-09T01:52:54.141Z,21.30
2018-08-09T01:53:28.383Z,21.30
2018-08-09T01:54:02.611Z,21.30
2018-08-09T01:54:36.489Z,21.30
2018-08-09T01:55:10.339Z,21.30
2018-08-09T01:55:44.539Z,21.30
2018-08-09T01:56:19.017Z,21.30
2018-08-09T01:56:52.914Z,21.30
2018-08-09T01:57:26.781Z,21.30
2018-08-09T01:58:00.720Z,21.30
2018-08-09T01:58:34.899Z,21.30
2018-08-09T01:59:08.775Z,21.30
2018-08-09T01:59:42.649Z,21.30
2018-08-09T02:00:16.601Z,21.30
2018-08-09T02:00:51.588Z,21.20
2018-08-09T02:01:25.809Z,21.20
2018-08-09T02:02:00.020Z,21.20
2018-08-09T02:02:34.257Z,21.20
2018-08-09T02:03:08.473Z,21.20
2018-08-09T02:03:42.697Z,21.20
2018-08-09T02:04:16.589Z,21.20
2018-08-09T02:04:50.958Z,21.20
2018-08-09T02:05:25.305Z,21.20
2018-08-09T02:05:59.197Z,21.20
2018-08-09T02:06:33.493Z,21.20
2018-08-09T02:07:07.373Z,21.20
2018-08-09T02:07:41.303Z,21.10
2018-08-09T02:08:15.411Z,21.10
2018-08-09T02:08:49.641Z,21.10
2018-08-09T02:09:29.037Z,21.10
2018-08-09T02:10:02.929Z,21.10
2018-08-09T02:10:37.109Z,21.10
2018-08-09T02:11:11.933Z,21.10
2018-08-09T02:11:45.847Z,21.10
2018-08-09T02:12:19.744Z,21.10
2018-08-09T02:12:53.633Z,21.10
2018-08-09T02:13:27.537Z,21.10
2018-08-09T02:14:01.717Z,21.10
2018-08-09T02:14:35.927Z,21.10
2018-08-09T02:15:09.847Z,21.10
2018-08-09T02:15:44.019Z,21.10
2018-08-09T02:16:17.891Z,21.00
2018-08-09T02:16:52.091Z,21.00
2018-08-09T02:18:06.508Z,21.00
2018-08-09T02:18:40.707Z,21.00
2018-08-09T02:19:14.565Z,21.00
2018-08-09T02:19:48.765Z,21.10
2018-08-09T02:20:23.019Z,21.00
2018-08-09T02:20:56.970Z,21.10
2018-08-09T02:21:31.651Z,21.10
2018-08-09T02:22:05.571Z,21.00
2018-08-09T02:22:39.781Z,21.00
2018-08-09T02:23:13.637Z,21.10
2018-08-09T02:23:47.512Z,21.00
2018-08-09T02:24:21.403Z,21.00
2018-08-09T02:24:55.601Z,21.00
2018-08-09T02:25:29.496Z,21.00
2018-08-09T02:26:04.060Z,21.00
2018-08-09T02:26:38.153Z,21.00
2018-08-09T02:27:12.415Z,21.00
2018-08-09T02:27:46.357Z,21.00
2018-08-09T02:28:20.249Z,21.00
2018-08-09T02:28:54.123Z,21.00
2018-08-09T02:29:27.991Z,20.90
2018-08-09T02:30:01.913Z,20.90
2018-08-09T02:30:36.168Z,20.90
2018-08-09T02:31:10.080Z,20.90
2018-08-09T02:31:44.284Z,20.90
2018-08-09T02:32:18.535Z,20.90
2018-08-09T02:32:52.401Z,20.90
2018-08-09T02:33:26.580Z,20.90
2018-08-09T02:34:00.830Z,20.90
2018-08-09T02:34:34.731Z,20.90
2018-08-09T02:35:08.620Z,20.90
2018-08-09T02:35:42.822Z,20.90
2018-08-09T02:36:17.077Z,20.90
2018-08-09T02:36:50.973Z,20.90
2018-08-09T02:37:25.195Z,20.90
2018-08-09T02:37:59.050Z,20.80
2018-08-09T02:38:33.601Z,20.80
2018-08-09T02:39:08.723Z,20.80
2018-08-09T02:39:42.617Z,20.80
2018-08-09T02:40:16.487Z,20.80
2018-08-09T02:40:50.687Z,20.80
2018-08-09T02:41:24.563Z,20.80
2018-08-09T02:41:58.410Z,20.80
2018-08-09T02:42:32.653Z,20.80
2018-08-09T02:43:06.917Z,20.80
2018-08-09T02:43:40.789Z,20.80
2018-08-09T02:44:14.673Z,20.80
2018-08-09T02:44:48.923Z,20.80
2018-08-09T02:45:22.813Z,20.70
2018-08-09T02:45:56.713Z,20.70
2018-08-09T02:46:30.578Z,20.70
2018-08-09T02:47:04.449Z,20.70
2018-08-09T02:47:38.637Z,20.70
2018-08-09T02:48:12.852Z,20.70
2018-08-09T02:48:47.124Z,20.70
2018-08-09T02:49:21.318Z,20.70
2018-08-09T02:49:55.563Z,20.70
2018-08-09T02:50:29.455Z,20.70
2018-08-09T02:51:03.330Z,20.60
2018-08-09T02:51:37.188Z,20.60
2018-08-09T02:52:11.061Z,20.60
2018-08-09T02:52:45.494Z,20.60
2018-08-09T02:53:19.363Z,20.60
2018-08-09T02:53:53.560Z,20.60
2018-08-09T02:54:27.437Z,20.60
2018-08-09T02:55:01.328Z,20.60
2018-08-09T02:55:35.990Z,20.60
2018-08-09T02:56:10.526Z,20.60
2018-08-09T02:56:44.393Z,20.60
2018-08-09T02:57:18.575Z,20.60
2018-08-09T02:57:52.838Z,20.60
2018-08-09T02:58:26.689Z,20.60
2018-08-09T02:59:00.647Z,20.60
2018-08-09T02:59:34.892Z,20.60
2018-08-09T03:00:08.762Z,20.60
2018-08-09T03:00:42.638Z,20.60
2018-08-09T03:01:16.855Z,20.60
2018-08-09T03:01:50.760Z,20.60
2018-08-09T03:02:24.632Z,20.60
2018-08-09T03:02:58.619Z,20.60
2018-08-09T03:03:32.832Z,20.60
2018-08-09T03:04:06.918Z,20.60
2018-08-09T03:04:40.812Z,20.60
2018-08-09T03:05:14.690Z,20.60
2018-08-09T03:05:48.572Z,20.60
2018-08-09T03:06:22.404Z,20.60
2018-08-09T03:06:56.290Z,20.60
2018-08-09T03:07:30.304Z,20.60
2018-08-09T03:08:04.225Z,20.60
2018-08-09T03:08:38.387Z,20.60
2018-08-09T03:09:13.671Z,20.60
2018-08-09T03:09:47.610Z,20.60
2018-08-09T03:10:21.481Z,20.50
2018-08-09T03:10:55.361Z,20.50
2018-08-09T03:11:29.560Z,20.50
2018-08-09T03:12:03.445Z,20.50
2018-08-09T03:12:37.674Z,20.50
2018-08-09T03:13:11.588Z,20.50
2018-08-09T03:13:45.803Z,20.50
2018-08-09T03:14:19.691Z,20.50
2018-08-09T03:14:54.011Z,20.50
2018-08-09T03:15:28.272Z,20.40
2018-08-09T03:16:02.163Z,20.40
2018-08-09T03:16:36.393Z,20.40
2018-08-09T03:17:10.687Z,20.40
2018-08-09T03:17:44.763Z,20.40
2018-08-09T03:18:18.662Z,20.40
2018-08-09T03:18:52.932Z,20.40
2018-08-09T03:19:27.501Z,20.40
2018-08-09T03:20:01.709Z,20.40
2018-08-09T03:20:35.927Z,20.40
2018-08-09T03:21:09.821Z,20.40
2018-08-09T03:21:43.709Z,20.40
2018-08-09T03:22:17.638Z,20.40
2018-08-09T03:22:51.551Z,20.40
2018-08-09T03:23:25.805Z,20.40
2018-08-09T03:23:59.752Z,20.40
2018-08-09T03:24:33.642Z,20.30
2018-08-09T03:25:07.569Z,20.40
2018-08-09T03:25:41.479Z,20.40
2018-08-09T03:26:15.403Z,20.40
2018-08-09T03:26:49.464Z,20.30
2018-08-09T03:27:23.714Z,20.40
2018-08-09T03:27:57.914Z,20.30
2018-08-09T03:28:31.845Z,20.30
2018-08-09T03:29:05.743Z,20.30
2018-08-09T03:29:39.617Z,20.30
2018-08-09T03:30:13.513Z,20.30
2018-08-09T03:30:47.437Z,20.30
2018-08-09T03:31:21.667Z,20.30
2018-08-09T03:31:55.899Z,20.30
2018-08-09T03:32:30.215Z,20.30
2018-08-09T03:33:04.795Z,20.30
2018-08-09T03:33:39.004Z,20.30
2018-08-09T03:34:12.899Z,20.30
2018-08-09T03:34:47.273Z,20.30
2018-08-09T03:35:21.209Z,20.30
2018-08-09T03:35:55.093Z,20.30
2018-08-09T03:36:28.949Z,20.30
2018-08-09T03:37:02.851Z,20.30
2018-08-09T03:37:36.754Z,20.30
2018-08-09T03:38:10.687Z,20.30
2018-08-09T03:38:44.645Z,20.30
2018-08-09T03:39:18.943Z,20.30
2018-08-09T03:39:53.167Z,20.30
2018-08-09T03:40:27.264Z,20.30
2018-08-09T03:41:01.545Z,20.30
2018-08-09T03:41:35.443Z,20.30
2018-08-09T03:42:09.387Z,20.30
2018-08-09T03:42:43.593Z,20.30
2018-08-09T03:43:17.843Z,20.30
2018-08-09T03:43:51.759Z,20.30
2018-08-09T03:44:25.631Z,20.30
2018-08-09T03:44:59.497Z,20.30
2018-08-09T03:45:33.718Z,20.30
2018-08-09T03:46:07.925Z,20.30
2018-08-09T03:46:41.841Z,20.30
2018-08-09T03:47:15.715Z,20.30
2018-08-09T03:47:49.567Z,20.30
2018-08-09T03:48:23.767Z,20.30
2018-08-09T03:48:57.705Z,20.30
2018-08-09T03:49:31.919Z,20.30
2018-08-09T03:50:06.543Z,20.30
2018-08-09T03:50:40.419Z,20.30
2018-08-09T03:51:14.639Z,20.30
2018-08-09T03:51:48.560Z,20.30
2018-08-09T03:52:22.774Z,20.30
2018-08-09T03:52:56.677Z,20.40
2018-08-09T03:53:31.297Z,20.40
2018-08-09T03:54:05.901Z,20.40
2018-08-09T03:54:39.997Z,20.40
2018-08-09T03:55:13.899Z,20.40
2018-08-09T03:55:48.174Z,20.40
2018-08-09T03:56:22.121Z,20.40
2018-08-09T03:56:56.019Z,20.40
2018-08-09T03:57:29.915Z,20.40
2018-08-09T03:58:04.469Z,20.40
2018-08-09T03:58:38.387Z,20.40
2018-08-09T03:59:12.690Z,20.40
2018-08-09T03:59:47.035Z,20.50
2018-08-09T04:00:21.152Z,20.50
2018-08-09T04:00:55.336Z,20.50
2018-08-09T04:01:29.630Z,20.50
2018-08-09T04:02:04.166Z,20.50
2018-08-09T04:02:38.312Z,20.50
2018-08-09T04:03:12.206Z,20.50
2018-08-09T04:03:46.486Z,20.60
2018-08-09T04:04:20.409Z,20.60
2018-08-09T04:04:54.327Z,20.60
2018-08-09T04:05:28.225Z,20.60
2018-08-09T04:06:02.116Z,20.60
2018-08-09T04:06:36.012Z,20.60
2018-08-09T04:07:10.236Z,20.60
2018-08-09T04:07:44.109Z,20.70
2018-08-09T04:08:18.004Z,20.70
2018-08-09T04:08:51.869Z,20.70
2018-08-09T04:09:26.454Z,20.70
2018-08-09T04:10:00.321Z,20.70
2018-08-09T04:10:34.194Z,20.70
2018-08-09T04:11:08.066Z,20.80
2018-08-09T04:11:42.346Z,20.70
2018-08-09T04:12:16.444Z,20.80
2018-08-09T04:12:50.671Z,20.80
2018-08-09T04:13:24.896Z,20.80
2018-08-09T04:13:58.791Z,20.80
2018-08-09T04:14:32.708Z,20.90
2018-08-09T04:15:08.912Z,20.90
2018-08-09T04:15:42.833Z,20.90
2018-08-09T04:16:16.672Z,21.00
2018-08-09T04:16:50.955Z,21.10
2018-08-09T04:17:24.802Z,21.10
2018-08-09T04:17:58.688Z,21.20
2018-08-09T04:18:32.580Z,21.30
2018-08-09T04:19:06.513Z,21.30
2018-08-09T04:19:40.760Z,21.40
2018-08-09T04:20:15.020Z,21.40
2018-08-09T04:20:48.940Z,21.40
2018-08-09T04:21:22.816Z,21.50
2018-08-09T04:21:56.680Z,21.60
2018-08-09T04:22:30.547Z,21.60
2018-08-09T04:23:04.468Z,21.60
2018-08-09T04:23:38.702Z,21.70
2018-08-09T04:24:12.613Z,21.70
2018-08-09T04:24:47.298Z,21.70
2018-08-09T04:25:21.191Z,21.80
2018-08-09T04:25:55.389Z,21.80
2018-08-09T04:26:29.315Z,21.90
2018-08-09T04:27:03.382Z,21.90
2018-08-09T04:27:37.610Z,21.90
2018-08-09T04:28:11.705Z,21.90
2018-08-09T04:28:45.911Z,22.00
2018-08-09T04:29:19.785Z,22.00
2018-08-09T04:29:54.106Z,22.00
2018-08-09T04:30:27.993Z,22.00
2018-08-09T04:31:01.873Z,22.00
2018-08-09T04:31:35.771Z,22.00
2018-08-09T04:32:09.635Z,22.00
2018-08-09T04:32:43.540Z,22.00
2018-08-09T04:33:17.423Z,22.10
2018-08-09T04:33:51.330Z,22.10
2018-08-09T04:34:25.230Z,22.10
2018-08-09T04:34:59.182Z,22.20
2018-08-09T04:35:33.036Z,22.20
2018-08-09T04:36:06.928Z,22.20
2018-08-09T04:36:40.846Z,22.20
2018-08-09T04:37:14.734Z,22.30
2018-08-09T04:37:49.351Z,22.30
2018-08-09T04:38:23.737Z,22.30
2018-08-09T04:38:57.987Z,22.30
2018-08-09T04:39:31.904Z,22.30
2018-08-09T04:40:05.849Z,22.40
2018-08-09T04:40:39.739Z,22.40
2018-08-09T04:41:13.665Z,22.40
2018-08-09T04:41:47.932Z,22.50
2018-08-09T04:42:21.829Z,22.60
2018-08-09T04:42:56.032Z,22.60
2018-08-09T04:43:29.913Z,22.60
2018-08-09T04:44:03.815Z,22.60
2018-08-09T04:44:37.727Z,22.70
2018-08-09T04:45:12.036Z,22.70
2018-08-09T04:45:45.914Z,22.70
2018-08-09T04:46:20.717Z,22.80
2018-08-09T04:46:54.636Z,22.80
2018-08-09T04:47:28.501Z,22.90
2018-08-09T04:48:02.733Z,22.90
2018-08-09T04:48:37.204Z,22.90
2018-08-09T04:49:11.510Z,22.90
2018-08-09T04:49:45.559Z,23.00
2018-08-09T04:50:20.451Z,23.00
2018-08-09T04:50:54.339Z,23.10
2018-08-09T04:51:28.605Z,23.20
2018-08-09T04:52:02.532Z,23.20
2018-08-09T04:52:36.842Z,23.30
2018-08-09T04:53:11.092Z,23.30
2018-08-09T04:53:45.006Z,23.40
2018-08-09T04:54:18.890Z,23.50
2018-08-09T04:54:52.777Z,23.60
2018-08-09T04:55:27.020Z,23.60
2018-08-09T04:56:00.876Z,23.70
2018-08-09T04:56:35.116Z,23.80
2018-08-09T04:57:09.037Z,23.80
2018-08-09T04:57:42.927Z,23.80
2018-08-09T04:58:16.868Z,23.90
2018-08-09T04:58:51.425Z,24.00
2018-08-09T04:59:25.315Z,24.10
2018-08-09T04:59:59.197Z,24.10
2018-08-09T05:00:33.166Z,24.10
2018-08-09T05:01:07.851Z,24.20
2018-08-09T05:01:41.770Z,24.20
2018-08-09T05:02:15.661Z,24.20
2018-08-09T05:02:49.868Z,24.20
2018-08-09T05:03:24.116Z,24.20
2018-08-09T05:03:58.032Z,24.30
2018-08-09T05:04:32.270Z,24.30
2018-08-09T05:05:06.521Z,24.30
2018-08-09T05:05:40.908Z,24.30
2018-08-09T05:06:15.120Z,24.30
2018-08-09T05:06:49.685Z,24.40
2018-08-09T05:07:23.632Z,24.40
2018-08-09T05:07:57.589Z,24.50
2018-08-09T05:08:31.524Z,24.50
2018-08-09T05:09:07.738Z,24.60
2018-08-09T05:09:42.020Z,24.70
2018-08-09T05:10:16.306Z,24.70
2018-08-09T05:10:50.830Z,24.80
2018-08-09T05:11:24.788Z,24.80
2018-08-09T05:11:58.686Z,24.90
2018-08-09T05:12:32.584Z,24.90
2018-08-09T05:13:06.472Z,25.00
2018-08-09T05:13:40.676Z,25.10
2018-08-09T05:14:14.592Z,25.10
2018-08-09T05:14:48.800Z,25.20
2018-08-09T05:15:23.118Z,25.30
2018-08-09T05:15:57.065Z,25.30
2018-08-09T05:16:31.488Z,25.30
2018-08-09T05:17:05.693Z,25.30
2018-08-09T05:17:39.834Z,25.20
2018-08-09T05:18:13.735Z,25.20
2018-08-09T05:18:47.999Z,25.10
2018-08-09T05:19:22.218Z,25.10
2018-08-09T05:19:56.164Z,25.00
2018-08-09T05:20:30.121Z,24.90
2018-08-09T05:21:04.274Z,24.80
2018-08-09T05:21:38.179Z,24.70
2018-08-09T05:22:12.049Z,24.70
2018-08-09T05:22:45.980Z,24.60
2018-08-09T05:24:05.928Z,24.40
2018-08-09T05:24:39.920Z,24.30
2018-08-09T05:25:13.832Z,24.20
2018-08-09T05:25:48.115Z,24.20
2018-08-09T05:26:22.055Z,24.10
2018-08-09T05:26:56.270Z,24.10
2018-08-09T05:27:30.936Z,24.10
2018-08-09T05:28:04.880Z,24.00
2018-08-09T05:28:39.138Z,24.00
2018-08-09T05:29:13.031Z,23.90
2018-08-09T05:29:46.924Z,23.90
2018-08-09T05:30:20.804Z,23.80
2018-08-09T05:30:54.706Z,23.80
2018-08-09T05:31:28.976Z,23.80
2018-08-09T05:32:03.269Z,23.70
2018-08-09T05:32:37.525Z,23.70
2018-08-09T05:33:11.724Z,23.60
2018-08-09T05:33:45.698Z,23.50
2018-08-09T05:34:19.971Z,23.50
2018-08-09T05:34:53.910Z,23.60
2018-08-09T05:35:28.062Z,23.50
2018-08-09T05:36:02.450Z,23.50
2018-08-09T05:36:36.420Z,23.50
2018-08-09T05:37:10.313Z,23.50
2018-08-09T05:37:44.375Z,23.50
2018-08-09T05:38:18.260Z,23.50
2018-08-09T05:38:52.516Z,23.50
2018-08-09T05:39:26.800Z,23.60
2018-08-09T05:40:01.059Z,23.50
2018-08-09T05:40:35.273Z,23.60
2018-08-09T05:41:09.160Z,23.60
2018-08-09T05:41:43.380Z,23.70
2018-08-09T05:42:17.407Z,23.70
2018-08-09T05:42:51.285Z,23.70
2018-08-09T05:43:25.510Z,23.70
2018-08-09T05:43:59.396Z,23.80
2018-08-09T05:44:33.310Z,23.80
2018-08-09T05:45:07.606Z,23.80
2018-08-09T05:45:41.406Z,23.80
2018-08-09T05:46:15.612Z,23.80
2018-08-09T05:46:49.952Z,23.80
2018-08-09T05:47:23.830Z,23.70
2018-08-09T05:47:57.745Z,23.70
2018-08-09T05:48:31.984Z,23.60
2018-08-09T05:49:06.006Z,23.60
2018-08-09T05:49:40.280Z,23.60
2018-08-09T05:50:14.178Z,23.50
2018-08-09T05:50:48.428Z,23.50
2018-08-09T05:51:22.347Z,23.40
2018-08-09T05:51:56.354Z,23.40
2018-08-09T05:52:30.589Z,23.30
2018-08-09T05:53:04.544Z,23.30
2018-08-09T05:53:38.943Z,23.30
2018-08-09T05:54:12.801Z,23.40
2018-08-09T05:54:46.674Z,23.40
2018-08-09T05:55:20.587Z,23.40
2018-08-09T05:55:54.452Z,23.40
2018-08-09T05:56:28.668Z,23.50
2018-08-09T05:57:02.574Z,23.60
2018-08-09T05:57:36.860Z,23.60
2018-08-09T05:58:10.774Z,23.60
2018-08-09T05:58:44.980Z,23.70
2018-08-09T05:59:18.851Z,23.80
2018-08-09T05:59:52.709Z,23.80
2018-08-09T06:00:26.983Z,23.80
2018-08-09T06:01:00.860Z,23.80
2018-08-09T06:01:34.799Z,23.80
2018-08-09T06:02:09.378Z,23.80
2018-08-09T06:02:43.733Z,23.80
2018-08-09T06:03:17.976Z,23.80
2018-08-09T06:03:51.842Z,23.80
2018-08-09T06:04:25.687Z,23.80
2018-08-09T06:04:59.556Z,23.80
2018-08-09T06:05:33.827Z,23.90
2018-08-09T06:06:08.184Z,23.90
2018-08-09T06:06:42.098Z,24.00
2018-08-09T06:07:16.320Z,24.10
2018-08-09T06:07:50.170Z,24.10
2018-08-09T06:08:24.412Z,24.20
2018-08-09T06:08:58.310Z,24.30
2018-08-09T06:09:32.225Z,24.40
2018-08-09T06:10:07.304Z,24.50
2018-08-09T06:10:41.734Z,24.60
2018-08-09T06:11:15.648Z,24.70
2018-08-09T06:11:49.881Z,24.80
2018-08-09T06:12:23.777Z,24.90
2018-08-09T06:12:58.953Z,24.90
2018-08-09T06:13:33.267Z,25.00
2018-08-09T06:14:08.788Z,25.00
2018-08-09T06:14:42.996Z,25.10
2018-08-09T06:15:17.222Z,25.10
2018-08-09T06:15:51.434Z,25.20
2018-08-09T06:16:25.960Z,25.20
2018-08-09T06:17:00.508Z,25.20
2018-08-09T06:17:34.816Z,25.30
2018-08-09T06:18:09.066Z,25.30
2018-08-09T06:18:42.949Z,25.30
2018-08-09T06:19:17.196Z,25.40
2018-08-09T06:19:51.438Z,25.30
2018-08-09T06:20:25.620Z,25.30
2018-08-09T06:20:59.886Z,25.30
2018-08-09T06:21:34.147Z,25.20
2018-08-09T06:22:08.654Z,25.10
2018-08-09T06:22:42.568Z,25.10
2018-08-09T06:23:16.426Z,25.00
2018-08-09T06:23:50.670Z,25.00
2018-08-09T06:24:24.860Z,24.90
2018-08-09T06:24:59.120Z,25.00
2018-08-09T06:25:33.134Z,25.00
2018-08-09T06:26:07.352Z,24.90
2018-08-09T06:26:41.243Z,24.90
2018-08-09T06:27:16.031Z,24.80
2018-08-09T06:27:50.282Z,24.70
2018-08-09T06:28:24.180Z,24.60
2018-08-09T06:28:58.376Z,24.50
2018-08-09T06:29:32.890Z,24.40
2018-08-09T06:30:08.786Z,24.30
2018-08-09T06:30:42.742Z,24.30
2018-08-09T06:31:16.682Z,24.30
2018-08-09T06:31:50.598Z,24.20
2018-08-09T06:32:24.445Z,24.10
2018-08-09T06:32:58.343Z,24.10
2018-08-09T06:33:32.628Z,24.10
2018-08-09T06:34:06.607Z,24.10
2018-08-09T06:34:40.480Z,24.10
2018-08-09T06:35:14.325Z,24.00
2018-08-09T06:35:48.275Z,24.00
2018-08-09T06:36:22.650Z,23.90
2018-08-09T06:36:56.911Z,23.90
2018-08-09T06:37:31.545Z,23.80
2018-08-09T06:38:05.486Z,23.80
2018-08-09T06:38:39.363Z,23.80
2018-08-09T06:39:13.250Z,23.80
2018-08-09T06:39:47.118Z,23.70
2018-08-09T06:40:20.994Z,23.80
2018-08-09T06:40:54.898Z,23.80
2018-08-09T06:41:28.766Z,23.80
2018-08-09T06:42:02.640Z,23.80
2018-08-09T06:42:36.472Z,23.80
2018-08-09T06:43:10.693Z,23.80
2018-08-09T06:43:45.021Z,23.80
2018-08-09T06:44:19.251Z,23.90
2018-08-09T06:44:53.118Z,23.90
2018-08-09T06:45:26.990Z,23.80
2018-08-09T06:46:01.241Z,23.90
2018-08-09T06:46:35.460Z,23.80
2018-08-09T06:47:09.676Z,23.80
2018-08-09T06:47:43.581Z,23.80
2018-08-09T06:48:18.016Z,23.70
2018-08-09T06:48:52.400Z,23.70
2018-08-09T06:49:26.301Z,23.70
2018-08-09T06:50:07.731Z,23.70
2018-08-09T06:50:41.672Z,23.80
2018-08-09T06:51:15.509Z,23.80
2018-08-09T06:51:49.402Z,23.80
2018-08-09T06:52:23.282Z,23.80
2018-08-09T06:52:57.498Z,23.80
2018-08-09T06:53:31.402Z,23.80
2018-08-09T06:54:05.826Z,23.80
2018-08-09T06:54:39.727Z,23.80
2018-08-09T06:55:13.588Z,23.80
2018-08-09T06:55:47.811Z,23.80
2018-08-09T06:56:22.094Z,23.80
2018-08-09T06:56:56.514Z,23.80
2018-08-09T06:57:30.398Z,23.80
2018-08-09T06:58:04.772Z,23.80
2018-08-09T06:58:39.004Z,23.80
2018-08-09T06:59:13.236Z,23.80
2018-08-09T06:59:47.206Z,23.80
2018-08-09T07:00:21.491Z,23.80
2018-08-09T07:00:55.525Z,23.80
2018-08-09T07:01:29.395Z,23.80
2018-08-09T07:02:03.277Z,23.80
2018-08-09T07:02:37.188Z,23.80
2018-08-09T07:03:11.724Z,23.80
2018-08-09T07:03:45.967Z,23.80
2018-08-09T07:04:19.860Z,23.80
2018-08-09T07:04:53.755Z,23.80
2018-08-09T07:05:27.660Z,23.80
2018-08-09T07:06:01.538Z,23.70
2018-08-09T07:06:35.744Z,23.70
2018-08-09T07:07:09.945Z,23.70
2018-08-09T07:07:44.202Z,23.80
2018-08-09T07:08:18.080Z,23.80
2018-08-09T07:08:52.357Z,23.80
2018-08-09T07:09:26.225Z,23.80
2018-08-09T07:10:00.393Z,23.80
2018-08-09T07:10:34.605Z,23.90
2018-08-09T07:11:08.521Z,23.80
2018-08-09T07:11:42.758Z,23.80
2018-08-09T07:12:16.611Z,23.90
2018-08-09T07:12:51.200Z,23.90
2018-08-09T07:13:25.766Z,23.80
2018-08-09T07:13:59.765Z,23.80
2018-08-09T07:14:33.680Z,23.70
2018-08-09T07:15:10.548Z,23.70
2018-08-09T07:15:44.750Z,23.70
2018-08-09T07:16:18.951Z,23.70
2018-08-09T07:16:52.848Z,23.70
2018-08-09T07:17:26.714Z,23.70
2018-08-09T07:18:00.941Z,23.70
2018-08-09T07:18:34.838Z,23.70
2018-08-09T07:19:09.223Z,23.70
2018-08-09T07:19:43.101Z,23.80
2018-08-09T07:20:17.350Z,23.80
2018-08-09T07:20:51.546Z,23.80
2018-08-09T07:21:25.450Z,23.80
2018-08-09T07:21:59.295Z,23.80
2018-08-09T07:22:33.532Z,23.80
2018-08-09T07:23:07.390Z,23.80
2018-08-09T07:23:41.645Z,23.80